New Franklin, Pennsylvania
Current Conditions -  °F | °C
As of 9:53 PM on Saturday 22 Nov 2014 (Local Time) from KHGR Reporting Station
Clear Clear  
Wind Chill: 36°   Ceiling: Unl
Heat Index: 39°   Visibility: 10mi
Dew Point: 18°   Wind: 5mph
Humidity: 43%   Direction: 170°S
Pressure: 30.19"   Gusts: NA
Location:  39.9438°N, 77.6827°W
Report Text: KHGR 230253Z 17004KT 10SM CLR 04/M08 A3019 RMK AO2 SLP240 T00391078 58012
Loading
Personal Weather Stations






























Interactive Weather Map New forecast layout! Learn more

10-Day Weather Forecast

Advertisements
Track Severe Weather on mobile